createdAt,value
2018-11-13T00:00:55.569Z,99778.56
2018-11-13T00:03:24.173Z,99777.72
2018-11-13T00:05:52.732Z,99778.30
2018-11-13T00:08:21.672Z,99784.12
2018-11-13T00:10:50.239Z,99778.30
2018-11-13T00:13:18.825Z,99777.91
2018-11-13T00:15:47.417Z,99778.47
2018-11-13T00:18:16.026Z,99772.73
2018-11-13T00:20:44.591Z,99778.56
2018-11-13T00:23:13.201Z,99784.96
2018-11-13T00:25:41.802Z,99807.94
2018-11-13T00:28:10.408Z,99807.14
2018-11-13T00:30:39.009Z,99795.18
2018-11-13T00:33:07.609Z,99787.77
2018-11-13T00:35:36.180Z,99790.88
2018-11-13T00:38:05.207Z,99794.08
2018-11-13T00:40:33.780Z,99797.28
2018-11-13T00:43:02.385Z,99800.75
2018-11-13T00:45:31.008Z,99805.70
2018-11-13T00:47:59.556Z,99807.77
2018-11-13T00:50:28.169Z,99802.33
2018-11-13T00:52:56.752Z,99809.30
2018-11-13T00:55:26.947Z,99803.28
2018-11-13T00:57:55.588Z,99802.50
2018-11-13T01:00:27.086Z,99809.48
2018-11-13T01:02:55.691Z,99823.59
2018-11-13T01:05:24.345Z,99839.31
2018-11-13T01:07:52.877Z,99853.53
2018-11-13T01:10:22.137Z,99855.95
2018-11-13T01:12:50.803Z,99866.78
2018-11-13T01:15:20.907Z,99870.06
2018-11-13T01:17:49.961Z,99872.94
2018-11-13T01:20:19.129Z,99868.48
2018-11-13T01:22:47.737Z,99865.72
2018-11-13T01:25:17.123Z,99867.49
2018-11-13T01:27:46.030Z,99868.52
2018-11-13T01:30:15.460Z,99871.16
2018-11-13T01:32:44.535Z,99869.58
2018-11-13T01:35:14.504Z,99865.62
2018-11-13T01:37:43.145Z,99866.87
2018-11-13T01:40:13.236Z,99857.85
2018-11-13T01:42:42.496Z,99861.45
2018-11-13T01:45:15.413Z,99862.52
2018-11-13T01:47:44.021Z,99868.58
2018-11-13T01:50:13.239Z,99873.20
2018-11-13T01:52:41.764Z,99854.59
2018-11-13T01:55:12.134Z,99878.20
2018-11-13T01:57:40.673Z,99875.27
2018-11-13T02:00:16.056Z,99881.00
2018-11-13T02:02:45.639Z,99877.14
2018-11-13T02:05:14.241Z,99887.39
2018-11-13T02:07:42.833Z,99879.92
2018-11-13T02:10:11.557Z,99889.38
2018-11-13T02:12:40.236Z,99887.98
2018-11-13T02:15:09.416Z,99894.27
2018-11-13T02:17:38.029Z,99888.30
2018-11-13T02:20:13.468Z,99894.55
2018-11-13T02:22:42.157Z,99884.72
2018-11-13T02:25:13.132Z,99894.17
2018-11-13T02:27:42.344Z,99892.16
2018-11-13T02:30:13.700Z,99894.50
2018-11-13T02:32:43.181Z,99892.19
2018-11-13T02:35:12.434Z,99893.67
2018-11-13T02:37:41.097Z,99886.50
2018-11-13T02:40:09.795Z,99882.58
2018-11-13T02:42:38.947Z,99887.69
2018-11-13T02:45:11.583Z,99892.84
2018-11-13T02:47:40.603Z,99883.79
2018-11-13T02:50:11.081Z,99885.30
2018-11-13T02:52:40.057Z,99895.48
2018-11-13T02:55:09.681Z,99904.49
2018-11-13T02:57:38.360Z,99905.25
2018-11-13T03:00:10.476Z,99914.37
2018-11-13T03:02:39.083Z,99919.30
2018-11-13T03:05:09.546Z,99920.97
2018-11-13T03:07:38.387Z,99930.81
2018-11-13T03:10:08.457Z,99923.38
2018-11-13T03:12:38.005Z,99919.63
2018-11-13T03:15:07.698Z,99918.65
2018-11-13T03:17:36.350Z,99915.94
2018-11-13T03:20:05.939Z,99901.70
2018-11-13T03:22:34.505Z,99910.17
2018-11-13T03:25:03.119Z,99907.13
2018-11-13T03:27:31.698Z,99906.06
2018-11-13T03:30:00.285Z,99913.00
2018-11-13T03:32:28.869Z,99923.88
2018-11-13T03:34:57.453Z,99931.19
2018-11-13T03:37:26.013Z,99939.32
2018-11-13T03:39:54.608Z,99943.27
2018-11-13T03:42:23.172Z,99934.63
2018-11-13T03:44:51.795Z,99936.78
2018-11-13T03:47:20.654Z,99936.86
2018-11-13T03:49:49.238Z,99941.95
2018-11-13T03:52:17.796Z,99936.86
2018-11-13T03:54:46.373Z,99924.78
2018-11-13T03:57:15.172Z,99930.48
2018-11-13T03:59:43.786Z,99930.03
2018-11-13T04:02:12.344Z,99925.22
2018-11-13T04:04:40.924Z,99925.28
2018-11-13T04:07:09.480Z,99924.02
2018-11-13T04:09:38.058Z,99921.28
2018-11-13T04:12:06.282Z,99924.78
2018-11-13T04:14:34.832Z,99933.17
2018-11-13T04:17:03.432Z,99927.85
2018-11-13T04:19:32.297Z,99924.02
2018-11-13T04:22:02.817Z,99922.48
2018-11-13T04:24:31.416Z,99932.92
2018-11-13T04:27:00.305Z,99935.44
2018-11-13T04:29:29.109Z,99929.88
2018-11-13T04:31:57.937Z,99939.96
2018-11-13T04:34:26.508Z,99941.56
2018-11-13T04:36:55.089Z,99951.56
2018-11-13T04:39:23.632Z,99954.59
2018-11-13T04:41:52.219Z,99959.12
2018-11-13T04:44:20.778Z,99961.11
2018-11-13T04:46:49.361Z,99964.89
2018-11-13T04:49:17.916Z,99956.97
2018-11-13T04:51:46.516Z,99953.91
2018-11-13T04:54:15.078Z,99952.77
2018-11-13T04:56:43.664Z,99960.69
2018-11-13T04:59:12.229Z,99961.60
2018-11-13T05:01:40.825Z,99964.07
2018-11-13T05:04:09.387Z,99955.85
2018-11-13T05:06:37.960Z,99962.09
2018-11-13T05:09:07.566Z,99963.50
2018-11-13T05:11:36.189Z,99959.47
2018-11-13T05:14:04.986Z,99964.07
2018-11-13T05:16:33.597Z,99966.70
2018-11-13T05:19:02.198Z,99966.84
2018-11-13T05:21:30.793Z,99977.23
2018-11-13T05:23:59.537Z,99977.23
2018-11-13T05:26:29.072Z,99982.15
2018-11-13T05:28:57.633Z,99990.88
2018-11-13T05:31:26.232Z,99987.36
2018-11-13T05:33:54.950Z,99989.19
2018-11-13T05:36:23.567Z,99983.63
2018-11-13T05:38:52.134Z,99982.03
2018-11-13T05:41:20.720Z,99987.89
2018-11-13T05:43:49.274Z,99993.78
2018-11-13T05:46:18.066Z,99994.63
2018-11-13T05:48:46.621Z,100001.44
2018-11-13T05:51:15.193Z,100002.55
2018-11-13T05:53:43.766Z,100026.72
2018-11-13T05:56:12.366Z,100049.23
2018-11-13T05:58:41.191Z,100043.19
2018-11-13T06:01:09.910Z,100051.52
2018-11-13T06:03:38.595Z,100046.52
2018-11-13T06:06:07.558Z,100049.77
2018-11-13T06:08:36.204Z,100060.91
2018-11-13T06:11:04.798Z,100058.91
2018-11-13T06:13:33.457Z,100065.61
2018-11-13T06:16:02.228Z,100072.18
2018-11-13T06:18:30.854Z,100093.68
2018-11-13T06:20:59.420Z,100090.26
2018-11-13T06:23:28.019Z,100093.28
2018-11-13T06:25:56.653Z,100093.68
2018-11-13T06:28:30.539Z,100080.63
2018-11-13T06:30:59.149Z,100084.55
2018-11-13T06:33:27.809Z,100080.30
2018-11-13T06:35:56.769Z,100071.03
2018-11-13T06:38:25.380Z,100065.85
2018-11-13T06:41:01.393Z,100068.03
2018-11-13T06:43:37.768Z,100073.98
2018-11-13T06:46:10.920Z,100090.66
2018-11-13T06:48:43.654Z,100118.39
2018-11-13T06:51:14.241Z,100120.39
2018-11-13T06:53:57.627Z,100130.13
2018-11-13T06:56:34.637Z,100143.96
2018-11-13T06:59:11.893Z,100149.91
2018-11-13T07:01:40.705Z,100140.56
2018-11-13T07:04:09.301Z,100144.44
2018-11-13T07:06:37.848Z,100142.97
2018-11-13T07:09:08.530Z,100168.00
2018-11-13T07:11:37.090Z,100179.95
2018-11-13T07:14:05.860Z,100173.90
2018-11-13T07:16:34.433Z,100164.34
2018-11-13T07:19:03.005Z,100170.98
2018-11-13T07:21:31.569Z,100196.77
2018-11-13T07:24:00.153Z,100196.36
2018-11-13T07:26:28.706Z,100193.25
2018-11-13T07:28:57.297Z,100197.59
2018-11-13T07:31:25.865Z,100211.56
2018-11-13T07:33:54.468Z,100218.17
2018-11-13T07:36:23.034Z,100207.48
2018-11-13T07:38:51.641Z,100230.15
2018-11-13T07:41:20.201Z,100228.55
2018-11-13T07:43:48.785Z,100227.88
2018-11-13T07:46:17.349Z,100224.98
2018-11-13T07:48:46.164Z,100228.70
2018-11-13T07:51:14.796Z,100226.98
2018-11-13T07:53:43.368Z,100228.44
2018-11-13T07:56:11.909Z,100237.95
2018-11-13T07:58:40.509Z,100246.31
2018-11-13T08:01:09.096Z,100244.31
2018-11-13T08:03:40.533Z,100239.50
2018-11-13T08:06:09.155Z,100242.30
2018-11-13T08:08:37.704Z,100249.80
2018-11-13T08:11:06.379Z,100253.37
2018-11-13T08:13:35.568Z,100263.80
2018-11-13T08:16:04.073Z,100270.30
2018-11-13T08:18:33.371Z,100276.77
2018-11-13T08:21:02.038Z,100278.95
2018-11-13T08:23:30.816Z,100281.72
2018-11-13T08:25:59.588Z,100289.13
2018-11-13T08:28:28.394Z,100286.00
2018-11-13T08:30:56.948Z,100298.09
2018-11-13T08:33:25.770Z,100308.80
2018-11-13T08:35:54.406Z,100312.47
2018-11-13T08:38:23.169Z,100319.73
2018-11-13T08:40:51.808Z,100316.97
2018-11-13T08:43:20.824Z,100326.27
2018-11-13T08:45:49.576Z,100322.95
2018-11-13T08:48:18.312Z,100325.18
2018-11-13T08:50:47.096Z,100328.21
2018-11-13T08:53:15.929Z,100329.09
2018-11-13T08:55:44.679Z,100337.11
2018-11-13T08:58:13.340Z,100340.08
2018-11-13T09:00:42.249Z,100341.13
2018-11-13T09:03:10.934Z,100351.05
2018-11-13T09:05:39.741Z,100349.37
2018-11-13T09:08:08.610Z,100349.63
2018-11-13T09:10:38.715Z,100342.69
2018-11-13T09:13:07.555Z,100346.86
2018-11-13T09:15:36.308Z,100349.80
2018-11-13T09:18:05.433Z,100361.62
2018-11-13T09:20:34.230Z,100368.80
2018-11-13T09:23:02.942Z,100367.08
2018-11-13T09:25:31.965Z,100376.41
2018-11-13T09:28:00.656Z,100371.63
2018-11-13T09:30:29.549Z,100378.47
2018-11-13T09:32:58.141Z,100379.10
2018-11-13T09:35:26.919Z,100376.27
2018-11-13T09:37:55.610Z,100381.42
2018-11-13T09:40:24.437Z,100375.19
2018-11-13T09:42:53.385Z,100380.60
2018-11-13T09:45:22.264Z,100385.86
2018-11-13T09:47:51.135Z,100385.56
2018-11-13T09:50:21.008Z,100383.91
2018-11-13T09:52:51.045Z,100394.80
2018-11-13T09:55:21.228Z,100397.34
2018-11-13T09:57:49.980Z,100391.54
2018-11-13T10:00:20.425Z,100388.54
2018-11-13T10:02:54.081Z,100398.05
2018-11-13T10:05:23.090Z,100393.25
2018-11-13T10:07:52.404Z,100396.98
2018-11-13T10:10:21.135Z,100400.06
2018-11-13T10:12:49.941Z,100401.56
2018-11-13T10:15:21.221Z,100406.06
2018-11-13T10:17:50.074Z,100409.23
2018-11-13T10:20:18.813Z,100409.87
2018-11-13T10:22:48.977Z,100416.20
2018-11-13T10:25:17.920Z,100408.56
2018-11-13T10:27:46.746Z,100408.09
2018-11-13T10:30:16.941Z,100413.55
2018-11-13T10:32:46.056Z,100419.28
2018-11-13T10:35:16.095Z,100419.80
2018-11-13T10:37:44.820Z,100422.06
2018-11-13T10:40:15.151Z,100415.92
2018-11-13T10:42:44.360Z,100415.63
2018-11-13T10:45:14.908Z,100421.55
2018-11-13T10:47:43.900Z,100401.48
2018-11-13T10:50:17.346Z,100407.17
2018-11-13T10:52:45.947Z,100398.29
2018-11-13T10:55:14.784Z,100390.77
2018-11-13T10:57:43.800Z,100397.44
2018-11-13T11:00:18.691Z,100397.42
2018-11-13T11:02:52.895Z,100396.42
2018-11-13T11:05:22.326Z,100397.42
2018-11-13T11:07:51.128Z,100411.05
2018-11-13T11:10:19.972Z,100426.89
2018-11-13T11:12:48.721Z,100408.83
2018-11-13T11:15:17.664Z,100421.36
2018-11-13T11:17:46.390Z,100430.43
2018-11-13T11:20:15.157Z,100432.17
2018-11-13T11:22:43.774Z,100427.37
2018-11-13T11:25:13.415Z,100427.19
2018-11-13T11:27:42.179Z,100433.69
2018-11-13T11:30:13.540Z,100435.02
2018-11-13T11:32:42.222Z,100434.05
2018-11-13T11:35:10.893Z,100427.03
2018-11-13T11:37:40.257Z,100432.45
2018-11-13T11:40:09.828Z,100432.80
2018-11-13T11:42:38.649Z,100434.98
2018-11-13T11:45:10.548Z,100446.04
2018-11-13T11:47:39.166Z,100433.28
2018-11-13T11:50:09.072Z,100444.58
2018-11-13T11:52:37.948Z,100447.21
2018-11-13T11:55:07.091Z,100462.64
2018-11-13T11:57:35.735Z,100461.09
2018-11-13T12:00:05.133Z,100449.41
2018-11-13T12:02:33.707Z,100451.00
2018-11-13T12:05:02.261Z,100461.31
2018-11-13T12:07:30.865Z,100456.05
2018-11-13T12:10:02.629Z,100460.84
2018-11-13T12:12:31.365Z,100463.40
2018-11-13T12:14:59.933Z,100462.34
2018-11-13T12:17:28.625Z,100454.25
2018-11-13T12:19:57.716Z,100461.13
2018-11-13T12:22:26.313Z,100466.64
2018-11-13T12:24:54.923Z,100452.87
2018-11-13T12:27:23.512Z,100455.85
2018-11-13T12:29:52.817Z,100456.27
2018-11-13T12:32:21.410Z,100453.53
2018-11-13T12:34:49.981Z,100451.42
2018-11-13T12:37:18.592Z,100454.27
2018-11-13T12:39:47.166Z,100455.83
2018-11-13T12:42:15.757Z,100461.28
2018-11-13T12:44:44.310Z,100461.44
2018-11-13T12:47:12.904Z,100462.09
2018-11-13T12:49:41.638Z,100468.52
2018-11-13T12:52:17.309Z,100456.59
2018-11-13T12:54:46.814Z,100461.01
2018-11-13T12:57:15.375Z,100467.89
2018-11-13T12:59:44.048Z,100466.11
2018-11-13T13:02:13.690Z,100463.25
2018-11-13T13:04:42.453Z,100465.03
2018-11-13T13:07:11.075Z,100468.52
2018-11-13T13:09:39.661Z,100463.47
2018-11-13T13:12:09.885Z,100464.40
2018-11-13T13:14:38.636Z,100463.09
2018-11-13T13:17:07.432Z,100466.01
2018-11-13T13:19:36.005Z,100473.47
2018-11-13T13:22:05.242Z,100477.42
2018-11-13T13:24:34.014Z,100476.55
2018-11-13T13:27:02.753Z,100473.53
2018-11-13T13:29:31.345Z,100469.37
2018-11-13T13:32:00.745Z,100465.05
2018-11-13T13:34:29.672Z,100458.42
2018-11-13T13:36:58.485Z,100467.55
2018-11-13T13:39:27.141Z,100466.84
2018-11-13T13:41:55.750Z,100473.60
2018-11-13T13:44:24.356Z,100477.70
2018-11-13T13:46:52.925Z,100479.80
2018-11-13T13:49:21.556Z,100485.14
2018-11-13T13:51:54.146Z,100478.20
2018-11-13T13:54:23.822Z,100480.05
2018-11-13T13:56:54.903Z,100482.31
2018-11-13T13:59:43.209Z,100492.77
2018-11-13T14:02:17.662Z,100502.38
2018-11-13T14:04:51.940Z,100501.06
2018-11-13T14:07:33.179Z,100502.20
2018-11-13T14:10:02.333Z,100504.28
2018-11-13T14:12:37.445Z,100502.13
2018-11-13T14:15:09.334Z,100508.05
2018-11-13T14:17:44.861Z,100501.31
2018-11-13T14:20:25.062Z,100493.02
2018-11-13T14:22:56.146Z,100499.73
2018-11-13T14:25:28.040Z,100500.81
2018-11-13T14:28:03.831Z,100500.88
2018-11-13T14:30:34.601Z,100502.81
2018-11-13T14:33:09.918Z,100509.11
2018-11-13T14:35:44.429Z,100504.77
2018-11-13T14:38:20.997Z,100499.48
2018-11-13T14:40:55.160Z,100500.80
2018-11-13T14:43:30.664Z,100507.74
2018-11-13T14:46:04.849Z,100499.07
2018-11-13T14:48:36.849Z,100508.54
2018-11-13T14:51:06.321Z,100512.09
2018-11-13T14:53:35.811Z,100518.17
2018-11-13T14:56:04.511Z,100521.28
2018-11-13T14:58:38.964Z,100524.89
2018-11-13T15:01:14.363Z,100527.22
2018-11-13T15:03:48.602Z,100531.71
2018-11-13T15:06:23.718Z,100532.81
2018-11-13T15:08:53.685Z,100536.16
2018-11-13T15:11:25.925Z,100541.73
2018-11-13T15:13:57.636Z,100548.48
2018-11-13T15:16:27.400Z,100544.52
2018-11-13T15:18:56.064Z,100556.91
2018-11-13T15:21:30.504Z,100553.21
2018-11-13T15:24:04.263Z,100564.89
2018-11-13T15:26:38.065Z,100565.52
2018-11-13T15:29:09.135Z,100560.67
2018-11-13T15:31:37.885Z,100571.20
2018-11-13T15:34:11.335Z,100572.73
2018-11-13T15:36:42.734Z,100576.89
2018-11-13T15:39:27.211Z,100581.77
2018-11-13T15:41:56.833Z,100577.63
2018-11-13T15:44:30.442Z,100588.23
2018-11-13T15:46:59.767Z,100588.91
2018-11-13T15:49:31.494Z,100582.20
2018-11-13T15:52:00.805Z,100586.98
2018-11-13T15:54:33.735Z,100596.94
2018-11-13T15:57:05.437Z,100595.14
2018-11-13T15:59:34.097Z,100591.26
2018-11-13T16:02:04.944Z,100595.16
2018-11-13T16:04:33.552Z,100601.94
2018-11-13T16:07:02.225Z,100603.92
2018-11-13T16:09:33.086Z,100608.20
2018-11-13T16:12:02.437Z,100615.81
2018-11-13T16:14:32.757Z,100618.25
2018-11-13T16:17:01.793Z,100620.78
2018-11-13T16:19:32.185Z,100621.91
2018-11-13T16:22:06.219Z,100623.70
2018-11-13T16:24:34.416Z,100623.29
2018-11-13T16:27:04.253Z,100625.44
2018-11-13T16:29:34.332Z,100632.63
2018-11-13T16:32:03.528Z,100632.12
2018-11-13T16:34:37.021Z,100636.16
2018-11-13T16:37:07.255Z,100636.45
2018-11-13T16:39:36.782Z,100638.84
2018-11-13T16:42:05.633Z,100639.73
2018-11-13T16:44:37.600Z,100639.95
2018-11-13T16:47:07.412Z,100640.25
2018-11-13T16:49:40.791Z,100648.93
2018-11-13T16:52:09.478Z,100651.53
2018-11-13T16:54:43.440Z,100650.89
2018-11-13T16:57:12.541Z,100651.64
2018-11-13T16:59:41.105Z,100656.25
2018-11-13T17:02:10.270Z,100652.27
2018-11-13T17:04:39.059Z,100652.95
2018-11-13T17:07:07.781Z,100657.51
2018-11-13T17:09:36.441Z,100661.45
2018-11-13T17:12:12.065Z,100658.59
2018-11-13T17:14:45.216Z,100666.92
2018-11-13T17:17:14.010Z,100665.17
2018-11-13T17:19:42.670Z,100670.36
2018-11-13T17:22:11.453Z,100677.64
2018-11-13T17:24:40.009Z,100688.22
2018-11-13T17:27:09.173Z,100682.62
2018-11-13T17:29:37.741Z,100679.21
2018-11-13T17:32:06.573Z,100682.28
2018-11-13T17:34:35.141Z,100687.67
2018-11-13T17:37:03.768Z,100688.74
2018-11-13T17:39:32.330Z,100695.10
2018-11-13T17:42:00.900Z,100700.28
2018-11-13T17:44:30.892Z,100697.25
2018-11-13T17:46:58.237Z,100701.84
2018-11-13T17:49:26.773Z,100708.84
2018-11-13T17:51:55.367Z,100711.75
2018-11-13T17:54:23.929Z,100710.03
2018-11-13T17:56:54.297Z,100713.39
2018-11-13T17:59:22.872Z,100703.95
2018-11-13T18:01:51.766Z,100714.69
2018-11-13T18:04:20.325Z,100717.59
2018-11-13T18:06:48.916Z,100717.56
2018-11-13T18:09:17.493Z,100720.12
2018-11-13T18:11:46.113Z,100720.44
2018-11-13T18:14:14.684Z,100724.19
2018-11-13T18:16:43.354Z,100728.91
2018-11-13T18:19:11.860Z,100727.88
2018-11-13T18:21:40.507Z,100728.16
2018-11-13T18:24:09.033Z,100724.14
2018-11-13T18:26:37.620Z,100729.52
2018-11-13T18:29:06.441Z,100728.73
2018-11-13T18:31:35.028Z,100731.92
2018-11-13T18:34:03.583Z,100731.94
2018-11-13T18:36:32.165Z,100727.72
2018-11-13T18:39:04.485Z,100735.40
2018-11-13T18:41:32.955Z,100732.54
2018-11-13T18:44:01.708Z,100734.53
2018-11-13T18:46:30.297Z,100738.27
2018-11-13T18:49:02.662Z,100738.14
2018-11-13T18:51:31.188Z,100739.58
2018-11-13T18:53:59.784Z,100737.08
2018-11-13T18:56:28.344Z,100741.77
2018-11-13T18:58:59.758Z,100740.52
2018-11-13T19:01:28.285Z,100741.59
2018-11-13T19:03:56.865Z,100747.98
2018-11-13T19:06:25.430Z,100746.28
2018-11-13T19:08:54.093Z,100750.45
2018-11-13T19:11:22.724Z,100747.91
2018-11-13T19:13:51.316Z,100746.48
2018-11-13T19:16:19.949Z,100748.08
2018-11-13T19:18:49.848Z,100754.47
2018-11-13T19:21:18.293Z,100753.13
2018-11-13T19:23:46.892Z,100753.70
2018-11-13T19:26:15.444Z,100749.36
2018-11-13T19:28:44.016Z,100753.70
2018-11-13T19:31:13.991Z,100753.80
2018-11-13T19:33:43.053Z,100740.97
2018-11-13T19:36:11.736Z,100751.87
2018-11-13T19:38:40.256Z,100748.70
2018-11-13T19:41:08.837Z,100752.59
2018-11-13T19:43:39.260Z,100756.86
2018-11-13T19:46:07.808Z,100751.67
2018-11-13T19:48:36.388Z,100757.41
2018-11-13T19:51:05.045Z,100754.45
2018-11-13T19:53:33.893Z,100766.39
2018-11-13T19:56:02.468Z,100766.55
2018-11-13T19:58:31.725Z,100770.28
2018-11-13T20:01:00.416Z,100769.59
2018-11-13T20:03:28.982Z,100770.33
2018-11-13T20:05:57.577Z,100772.52
2018-11-13T20:08:26.185Z,100778.34
2018-11-13T20:10:54.908Z,100781.50
2018-11-13T20:13:23.529Z,100781.41
2018-11-13T20:15:52.121Z,100779.55
2018-11-13T20:18:20.695Z,100776.13
2018-11-13T20:20:50.283Z,100775.70
2018-11-13T20:23:19.069Z,100777.63
2018-11-13T20:25:47.960Z,100780.31
2018-11-13T20:28:16.542Z,100780.36
2018-11-13T20:30:45.162Z,100778.00
2018-11-13T20:33:13.737Z,100778.55
2018-11-13T20:35:42.281Z,100778.95
2018-11-13T20:38:10.888Z,100781.48
2018-11-13T20:40:39.592Z,100777.73
2018-11-13T20:43:10.175Z,100776.48
2018-11-13T20:45:38.709Z,100775.70
2018-11-13T20:48:08.182Z,100771.84
2018-11-13T20:50:36.777Z,100778.12
2018-11-13T20:53:05.389Z,100775.63
2018-11-13T20:55:35.396Z,100770.20
2018-11-13T20:58:03.960Z,100783.20
2018-11-13T21:00:34.655Z,100783.63
2018-11-13T21:03:03.303Z,100784.33
2018-11-13T21:05:34.479Z,100790.52
2018-11-13T21:08:03.332Z,100780.06
2018-11-13T21:10:36.856Z,100786.05
2018-11-13T21:13:05.733Z,100786.45
2018-11-13T21:15:34.347Z,100790.66
2018-11-13T21:18:03.768Z,100783.11
2018-11-13T21:20:32.727Z,100786.83
2018-11-13T21:23:01.286Z,100787.25
2018-11-13T21:25:30.776Z,100785.63
2018-11-13T21:28:01.481Z,100783.98
2018-11-13T21:30:30.189Z,100777.52
2018-11-13T21:32:59.612Z,100779.11
2018-11-13T21:35:29.326Z,100772.47
2018-11-13T21:38:02.967Z,100774.19
2018-11-13T21:40:31.801Z,100779.35
2018-11-13T21:43:00.366Z,100778.63
2018-11-13T21:45:29.525Z,100769.31
2018-11-13T21:47:58.118Z,100779.63
2018-11-13T21:50:28.049Z,100775.62
2018-11-13T21:52:56.648Z,100772.27
2018-11-13T21:55:26.518Z,100783.04
2018-11-13T21:57:55.098Z,100785.32
2018-11-13T22:00:25.732Z,100775.80
2018-11-13T22:02:56.909Z,100774.12
2018-11-13T22:05:28.907Z,100780.38
2018-11-13T22:08:02.480Z,100777.70
2018-11-13T22:10:32.770Z,100779.52
2018-11-13T22:13:03.003Z,100775.14
2018-11-13T22:15:33.935Z,100780.66
2018-11-13T22:18:03.165Z,100776.69
2018-11-13T22:20:34.076Z,100772.67
2018-11-13T22:23:06.813Z,100779.86
2018-11-13T22:25:37.650Z,100775.62
2018-11-13T22:28:07.135Z,100778.66
2018-11-13T22:30:37.055Z,100780.80
2018-11-13T22:33:08.143Z,100780.06
2018-11-13T22:35:38.166Z,100783.66
2018-11-13T22:38:09.686Z,100793.00
2018-11-13T22:40:40.864Z,100780.84
2018-11-13T22:43:11.574Z,100780.58
2018-11-13T22:45:42.527Z,100784.42
2018-11-13T22:48:14.435Z,100779.27
2018-11-13T22:50:44.159Z,100779.81
2018-11-13T22:53:14.255Z,100775.23
2018-11-13T22:55:48.390Z,100779.22
2018-11-13T22:58:17.782Z,100775.85
2018-11-13T23:00:50.719Z,100778.38
2018-11-13T23:03:22.214Z,100770.54
2018-11-13T23:05:52.163Z,100781.98
2018-11-13T23:08:25.125Z,100782.81
2018-11-13T23:10:54.220Z,100775.47
2018-11-13T23:13:25.517Z,100777.13
2018-11-13T23:15:56.707Z,100778.16
2018-11-13T23:18:27.195Z,100778.86
2018-11-13T23:21:00.804Z,100781.70
2018-11-13T23:23:29.378Z,100773.78
2018-11-13T23:25:57.997Z,100776.27
2018-11-13T23:28:26.565Z,100781.48
2018-11-13T23:30:55.188Z,100781.27
2018-11-13T23:33:23.763Z,100780.03
2018-11-13T23:35:52.357Z,100776.22
2018-11-13T23:38:20.995Z,100773.99
2018-11-13T23:40:49.601Z,100781.59
2018-11-13T23:43:18.173Z,100779.20
2018-11-13T23:45:46.770Z,100787.78
2018-11-13T23:48:15.380Z,100793.98
2018-11-13T23:50:50.879Z,100795.11
2018-11-13T23:53:20.567Z,100792.84
2018-11-13T23:55:54.153Z,100792.13
2018-11-13T23:58:23.957Z,100792.02
